Time;durP1;ratioP1;P1;durP2;ratioP2;P2;SDS_P1;SDS_P2;PMS_P1;PMS_P2;Temp;Humidity;BMP_temperature;BMP_pressure;BME280_temperature;BME280_humidity;BME280_pressure;Samples;Min_cycle;Max_cycle;Signal;HPM_P1;HPM_P2
2023/05/04 00:01:50;;;;;;;5.05;3.33;;;9.30;99.90;;;8.86;100.00;97713.88;5046949;28;20040;-39
2023/05/04 00:04:16;;;;;;;6.15;3.75;;;9.30;99.90;;;8.82;100.00;97706.97;5047307;28;20102;-40
2023/05/04 00:06:42;;;;;;;5.22;3.42;;;9.20;99.90;;;8.78;100.00;97702.69;5048479;28;20209;-39
2023/05/04 00:09:12;;;;;;;4.85;3.47;;;9.20;99.90;;;8.68;100.00;97677.53;5046135;28;20024;-39
2023/05/04 00:11:38;;;;;;;4.55;3.60;;;9.20;99.90;;;8.78;100.00;97692.19;5046795;28;20056;-39
2023/05/04 00:14:04;;;;;;;5.55;3.40;;;9.20;99.90;;;8.76;100.00;97696.63;5048714;28;20029;-38
2023/05/04 00:16:29;;;;;;;5.03;3.22;;;9.20;99.90;;;8.74;100.00;97690.50;5043310;28;20041;-38
2023/05/04 00:18:55;;;;;;;6.60;3.70;;;9.20;99.90;;;8.73;100.00;97694.91;5044614;28;20032;-38
2023/05/04 00:21:21;;;;;;;5.82;3.92;;;9.20;99.90;;;8.70;100.00;97687.09;5046845;28;20032;-39
2023/05/04 00:23:46;;;;;;;4.60;3.13;;;9.10;99.90;;;8.73;100.00;97689.66;5040396;28;20029;-37
2023/05/04 00:26:12;;;;;;;5.18;3.50;;;9.10;99.90;;;8.64;100.00;97681.13;5041192;28;20488;-38
2023/05/04 00:28:38;;;;;;;6.32;3.58;;;9.10;99.90;;;8.67;100.00;97678.41;5041728;28;20227;-38
2023/05/04 00:31:03;;;;;;;5.03;3.78;;;9.10;99.90;;;8.70;100.00;97687.09;5046624;28;20036;-38
2023/05/04 00:33:29;;;;;;;5.85;3.72;;;9.10;99.90;;;8.68;100.00;97680.16;5044776;28;20052;-38
2023/05/04 00:35:55;;;;;;;4.97;3.42;;;9.10;99.90;;;8.64;100.00;97681.13;5041988;28;20032;-38
2023/05/04 00:38:20;;;;;;;4.65;3.25;;;9.00;99.90;;;8.56;100.00;97670.78;5046149;28;21740;-38
2023/05/04 00:40:46;;;;;;;6.35;3.55;;;9.00;99.90;;;8.53;100.00;97669.13;5042078;28;20029;-38
2023/05/04 00:43:12;;;;;;;6.10;3.97;;;8.90;99.90;;;8.51;100.00;97668.28;5041391;28;20488;-38
2023/05/04 00:45:39;;;;;;;6.63;4.03;;;8.90;99.90;;;8.41;100.00;97658.84;5044512;28;20029;-39
2023/05/04 00:48:05;;;;;;;5.70;3.55;;;8.90;99.90;;;8.42;100.00;97665.88;5065967;28;20036;-39
2023/05/04 00:50:31;;;;;;;4.30;3.67;;;8.90;99.90;;;8.40;100.00;97662.41;5044292;28;20523;-38
2023/05/04 00:53:00;;;;;;;6.05;4.20;;;8.80;99.90;;;8.34;100.00;97657.28;5048070;28;20037;-39
2023/05/04 00:55:26;;;;;;;6.10;4.10;;;8.80;99.90;;;8.37;100.00;97665.09;5044661;28;20032;-38
2023/05/04 00:57:52;;;;;;;5.80;4.10;;;8.80;99.90;;;8.35;100.00;97672.16;5044429;28;20066;-39
2023/05/04 01:00:18;;;;;;;5.90;4.13;;;8.80;99.90;;;8.33;100.00;97664.31;5042154;28;20036;-38
2023/05/04 01:02:43;;;;;;;5.53;4.07;;;8.80;99.90;;;8.31;100.00;97667.84;5049933;28;20071;-39
2023/05/04 01:05:13;;;;;;;6.45;4.30;;;8.70;99.90;;;8.30;100.00;97667.00;5044164;28;20029;-39
2023/05/04 01:08:01;;;;;;;6.15;4.28;;;8.70;99.90;;;8.28;100.00;97666.19;5041190;28;20025;-39
2023/05/04 01:10:40;;;;;;;7.22;4.10;;;8.70;99.90;;;8.25;100.00;97663.63;5041724;28;20024;-39
2023/05/04 01:13:11;;;;;;;6.47;4.45;;;8.70;99.90;;;8.27;100.00;97668.84;5044444;28;20075;-39
2023/05/04 01:15:38;;;;;;;7.22;4.88;;;8.70;99.90;;;8.14;100.00;97650.72;5044105;28;20132;-39
2023/05/04 01:18:05;;;;;;;9.85;5.50;;;8.70;99.90;;;8.20;100.00;97663.75;5035172;28;20036;-39
2023/05/04 01:20:31;;;;;;;7.13;5.22;;;8.70;99.90;;;8.18;100.00;97665.53;5043403;28;20443;-39
2023/05/04 01:22:57;;;;;;;7.55;5.10;;;8.60;99.90;;;8.17;100.00;97660.31;5048025;28;20025;-40
2023/05/04 01:25:31;;;;;;;7.45;4.90;;;8.60;99.90;;;8.17;100.00;97668.19;5045642;28;21117;-39
2023/05/04 01:28:10;;;;;;;9.23;5.95;;;8.60;99.90;;;8.15;100.00;97670.00;5059495;28;20058;-40
2023/05/04 01:30:42;;;;;;;8.88;5.70;;;8.60;99.90;;;8.12;100.00;97670.91;5046147;28;20452;-39
2023/05/04 01:33:09;;;;;;;8.30;5.53;;;8.60;99.90;;;8.13;100.00;97661.25;5044740;28;20042;-38
2023/05/04 01:35:35;;;;;;;8.18;5.28;;;8.60;99.90;;;7.86;100.00;97623.38;5045400;28;20448;-40
2023/05/04 01:38:02;;;;;;;7.25;5.28;;;8.60;99.90;;;8.12;100.00;97670.91;5048144;28;20060;-38
2023/05/04 01:40:27;;;;;;;7.57;5.43;;;8.60;99.90;;;8.00;100.00;97647.56;5044280;28;20033;-39
2023/05/04 01:42:53;;;;;;;7.30;5.18;;;8.50;99.90;;;8.06;100.00;97650.06;5044339;28;20040;-38
2023/05/04 01:45:19;;;;;;;6.88;5.38;;;8.50;99.90;;;8.08;100.00;97658.75;5044058;28;20064;-39
2023/05/04 01:47:45;;;;;;;6.80;5.68;;;8.50;99.90;;;8.00;100.00;97652.81;5047426;28;20016;-40
2023/05/04 01:50:11;;;;;;;8.20;5.68;;;8.50;99.90;;;8.02;100.00;97656.25;5039877;28;20410;-39
2023/05/04 01:52:36;;;;;;;8.18;5.60;;;8.50;99.90;;;8.01;100.00;97662.44;5045911;28;20032;-39
2023/05/04 01:55:02;;;;;;;7.15;5.50;;;8.40;99.90;;;7.99;100.00;97664.22;5045095;28;20036;-39
2023/05/04 01:57:28;;;;;;;7.03;5.38;;;8.40;99.90;;;7.81;100.00;97632.22;5041123;28;20532;-40
2023/05/04 01:59:53;;;;;;;7.63;5.95;;;8.40;99.90;;;7.96;100.00;97661.66;5043828;28;20194;-40
2023/05/04 02:02:19;;;;;;;7.93;5.35;;;8.40;99.90;;;7.96;100.00;97659.03;5047318;28;20121;-40
2023/05/04 02:04:45;;;;;;;7.85;5.55;;;8.40;99.90;;;7.91;100.00;97656.50;5051046;28;20021;-39
2023/05/04 02:07:11;;;;;;;8.38;6.15;;;8.30;99.90;;;7.91;100.00;97658.25;5046636;28;20197;-38
2023/05/04 02:09:37;;;;;;;8.43;6.15;;;8.30;99.90;;;7.79;100.00;97651.53;5043281;28;20051;-39
2023/05/04 02:12:03;;;;;;;8.27;6.03;;;8.30;99.90;;;7.83;100.00;97650.56;5048714;28;20041;-39
2023/05/04 02:14:29;;;;;;;9.65;6.30;;;8.30;99.90;;;7.82;100.00;97661.97;5049512;28;20505;-38
2023/05/04 02:16:54;;;;;;;9.35;6.18;;;8.30;99.90;;;7.79;100.00;97655.03;5031823;28;20067;-38
2023/05/04 02:19:20;;;;;;;8.90;6.30;;;8.30;99.90;;;7.73;100.00;97644.63;5047686;28;20435;-39
2023/05/04 02:21:46;;;;;;;7.50;6.15;;;8.20;99.90;;;7.73;100.00;97644.63;5050285;28;20025;-38
2023/05/04 02:24:12;;;;;;;11.02;6.70;;;8.20;99.90;;;7.61;100.00;97631.81;5045105;28;20067;-39
2023/05/04 02:26:38;;;;;;;8.48;6.63;;;8.20;99.90;;;7.72;100.00;97648.19;5048096;28;20082;-38
2023/05/04 02:29:04;;;;;;;9.13;6.65;;;8.20;99.90;;;7.69;100.00;97637.72;5052696;28;20491;-38
2023/05/04 02:31:33;;;;;;;7.90;6.60;;;8.10;99.90;;;7.70;100.00;97646.47;5045783;28;20031;-38
2023/05/04 02:34:00;;;;;;;8.35;6.32;;;8.10;99.90;;;7.65;100.00;97643.94;5050111;28;20088;-38
2023/05/04 02:36:26;;;;;;;10.32;7.05;;;8.10;99.90;;;7.63;100.00;97651.00;5047729;28;20036;-38
2023/05/04 02:38:53;;;;;;;11.18;7.18;;;8.10;99.90;;;7.62;100.00;97647.50;5048609;28;20041;-39
2023/05/04 02:41:19;;;;;;;9.93;7.00;;;8.10;99.90;;;7.60;100.00;97648.44;5047698;28;20586;-39
2023/05/04 02:43:45;;;;;;;8.95;6.50;;;8.00;99.90;;;7.56;100.00;97655.50;5046428;28;20024;-39
2023/05/04 02:46:11;;;;;;;9.05;6.90;;;8.00;99.90;;;7.47;100.00;97624.22;5041787;28;20024;-39
2023/05/04 02:48:36;;;;;;;11.48;7.70;;;8.00;99.90;;;7.50;100.00;97639.91;5048306;28;20028;-40
2023/05/04 02:51:02;;;;;;;9.40;6.97;;;8.00;99.90;;;7.37;100.00;97617.41;5047018;28;20028;-39
2023/05/04 02:53:28;;;;;;;9.90;6.80;;;8.00;99.90;;;7.40;100.00;97639.22;5041732;28;20541;-39
2023/05/04 02:55:53;;;;;;;9.38;7.38;;;7.90;99.90;;;7.39;100.00;97642.75;5041519;28;20337;-38
2023/05/04 02:58:19;;;;;;;12.23;7.15;;;7.90;99.90;;;7.41;100.00;97647.94;5043217;28;20443;-38
2023/05/04 03:00:45;;;;;;;11.25;7.60;;;7.80;99.90;;;7.41;100.00;97646.19;5042377;28;20108;-37
2023/05/04 03:03:11;;;;;;;11.02;7.53;;;7.90;99.90;;;7.31;100.00;97626.28;5049673;28;20032;-38
2023/05/04 03:05:37;;;;;;;9.30;6.85;;;7.90;99.90;;;7.44;100.00;97642.63;5047828;28;20035;-37
2023/05/04 03:08:03;;;;;;;9.63;7.13;;;7.90;99.90;;;7.43;100.00;97644.41;5048831;28;20029;-38
2023/05/04 03:10:29;;;;;;;10.93;7.72;;;7.90;99.90;;;7.42;100.00;97644.44;5046447;28;20528;-38
2023/05/04 03:12:54;;;;;;;12.57;7.72;;;7.90;99.90;;;7.44;100.00;97640.88;5045952;28;20067;-38
2023/05/04 03:15:20;;;;;;;11.60;7.88;;;7.90;99.90;;;7.45;100.00;97639.13;5048957;28;20035;-38
2023/05/04 03:17:46;;;;;;;12.27;7.65;;;7.90;99.90;;;7.44;100.00;97651.34;5049535;28;20113;-38
2023/05/04 03:20:12;;;;;;;12.05;7.70;;;7.90;99.90;;;7.37;100.00;97649.75;5042317;28;20033;-39
2023/05/04 03:22:38;;;;;;;10.35;7.60;;;7.90;99.90;;;7.39;100.00;97652.34;5050867;28;20020;-40
2023/05/04 03:25:05;;;;;;;10.57;7.03;;;7.80;99.90;;;7.40;100.00;97648.84;5046010;28;20082;-39
2023/05/04 03:27:30;;;;;;;9.30;7.25;;;7.80;99.90;;;7.35;100.00;97648.94;5047716;28;20033;-38
2023/05/04 03:29:56;;;;;;;10.00;7.43;;;7.80;99.90;;;7.34;100.00;97649.84;5047413;28;20040;-39
2023/05/04 03:32:22;;;;;;;9.23;6.97;;;7.80;99.90;;;7.25;100.00;97635.16;5048463;28;20032;-39
2023/05/04 03:34:47;;;;;;;10.75;7.20;;;7.80;99.90;;;7.32;100.00;97648.13;5049513;28;20188;-38
2023/05/04 03:37:13;;;;;;;10.52;7.30;;;7.70;99.90;;;7.22;100.00;97635.19;5045643;28;20483;-41
2023/05/04 03:39:39;;;;;;;9.45;7.30;;;7.70;99.90;;;7.28;100.00;97639.44;5045496;28;20507;-39
2023/05/04 03:42:04;;;;;;;9.43;7.28;;;7.70;99.90;;;7.26;100.00;97647.34;5048242;28;21319;-39
2023/05/04 03:44:30;;;;;;;11.02;7.20;;;7.70;99.90;;;7.21;100.00;97637.84;5047514;28;20553;-39
2023/05/04 03:46:56;;;;;;;10.10;7.38;;;7.70;99.90;;;7.23;100.00;97638.66;5045094;28;20035;-39
2023/05/04 03:49:21;;;;;;;10.85;7.82;;;7.70;99.90;;;7.21;100.00;97643.09;5047755;28;20029;-40
2023/05/04 03:51:47;;;;;;;9.95;7.15;;;7.70;99.90;;;7.19;100.00;97632.63;5049018;28;20037;-37
2023/05/04 03:54:13;;;;;;;11.88;8.23;;;7.60;99.90;;;7.14;100.00;97625.75;5048812;28;20067;-39
2023/05/04 03:56:38;;;;;;;10.20;7.63;;;7.60;99.90;;;7.13;100.00;97627.50;5045225;28;20383;-39
2023/05/04 03:59:04;;;;;;;10.95;8.52;;;7.60;99.90;;;7.03;100.00;97618.97;5039829;28;20647;-38
2023/05/04 04:01:30;;;;;;;10.73;7.30;;;7.50;99.90;;;7.10;100.00;97632.81;5045539;28;20079;-38
2023/05/04 04:03:55;;;;;;;10.13;8.23;;;7.60;99.90;;;7.03;100.00;97621.59;5037480;28;20025;-38
2023/05/04 04:06:22;;;;;;;9.55;7.35;;;7.60;99.90;;;7.11;100.00;97631.94;5039841;28;20052;-39
2023/05/04 04:08:47;;;;;;;9.57;7.35;;;7.60;99.90;;;7.06;100.00;97623.28;5046325;28;20102;-39
2023/05/04 04:11:13;;;;;;;11.38;7.07;;;7.60;99.90;;;7.12;100.00;97638.03;5041043;28;20040;-39
2023/05/04 04:13:39;;;;;;;9.23;6.65;;;7.60;99.90;;;7.12;100.00;97633.63;5044165;28;20083;-39
2023/05/04 04:16:05;;;;;;;8.18;6.57;;;7.60;99.90;;;7.04;100.00;97618.06;5038250;28;20025;-39
2023/05/04 04:18:31;;;;;;;12.05;6.95;;;7.60;99.90;;;7.12;100.00;97619.66;5034905;28;20483;-39
2023/05/04 04:20:57;;;;;;;14.93;7.00;;;7.60;99.90;;;7.24;100.00;97624.69;5045334;28;20094;-40
2023/05/04 04:23:23;;;;;;;9.48;6.47;;;7.70;99.90;;;7.28;100.00;97628.97;5039704;28;20025;-39
2023/05/04 04:25:50;;;;;;;9.32;6.85;;;7.70;99.90;;;7.29;100.00;97630.69;5039181;28;20029;-39
2023/05/04 04:28:15;;;;;;;8.82;6.75;;;7.80;99.90;;;7.20;100.00;97612.53;5044302;28;20035;-39
2023/05/04 04:30:41;;;;;;;10.43;7.38;;;7.80;99.90;;;7.34;100.00;97622.72;5044843;28;20025;-39
2023/05/04 04:33:08;;;;;;;10.52;7.80;;;7.80;99.90;;;7.36;100.00;97613.09;5033963;28;20040;-39
2023/05/04 04:35:34;;;;;;;10.85;7.63;;;7.80;99.90;;;7.43;100.00;97619.94;5040444;28;20056;-39
2023/05/04 04:38:00;;;;;;;9.57;7.38;;;7.90;99.90;;;7.40;100.00;97609.50;5045937;28;20039;-38
2023/05/04 04:40:25;;;;;;;13.95;7.22;;;7.90;99.90;;;7.44;100.00;97605.91;5044112;28;20039;-39
2023/05/04 04:42:51;;;;;;;10.20;7.03;;;8.00;99.90;;;7.48;100.00;97596.19;5046841;28;20283;-37
2023/05/04 04:45:19;;;;;;;11.60;7.10;;;8.00;99.90;;;7.52;100.00;97606.59;5039697;28;20795;-37
2023/05/04 04:47:45;;;;;;;9.68;7.47;;;8.00;99.90;;;7.66;100.00;97624.66;5040841;28;20060;-37
2023/05/04 04:50:11;;;;;;;10.95;7.30;;;8.10;99.90;;;7.72;100.00;97629.81;5043659;28;20600;-38
2023/05/04 04:52:37;;;;;;;10.85;6.78;;;8.20;99.90;;;7.78;100.00;97618.28;5042960;28;20036;-38
2023/05/04 04:55:03;;;;;;;11.40;7.30;;;8.20;99.90;;;7.82;100.00;97622.56;5046614;28;20400;-38
2023/05/04 04:57:29;;;;;;;13.07;7.13;;;8.20;99.90;;;7.75;100.00;97598.25;5041896;28;20800;-37
2023/05/04 04:59:56;;;;;;;11.05;7.32;;;8.30;99.90;;;7.82;100.00;97604.19;5037961;28;20037;-37
2023/05/04 05:02:21;;;;;;;8.63;6.63;;;8.30;99.90;;;7.77;100.00;97593.81;5036328;28;20024;-38
2023/05/04 05:04:48;;;;;;;9.48;7.32;;;8.40;99.90;;;7.99;100.00;97615.19;5033646;28;20074;-37
2023/05/04 05:07:14;;;;;;;11.25;6.90;;;8.40;99.90;;;8.10;100.00;97620.19;5043316;28;20036;-37
2023/05/04 05:09:40;;;;;;;9.27;6.45;;;8.50;99.90;;;8.18;100.00;97609.47;5039555;28;20048;-37
2023/05/04 05:12:05;;;;;;;9.10;6.45;;;8.60;99.90;;;8.28;100.00;97607.50;5045530;28;20025;-38
2023/05/04 05:14:32;;;;;;;10.52;7.25;;;8.70;99.90;;;8.39;100.00;97614.22;5045724;28;20033;-37
2023/05/04 05:16:58;;;;;;;10.38;7.90;;;8.80;99.90;;;8.40;100.00;97592.31;5047968;28;20025;-37
2023/05/04 05:19:24;;;;;;;10.65;7.03;;;9.00;99.90;;;8.69;100.00;97618.78;5044889;28;20041;-38
2023/05/04 05:21:51;;;;;;;11.00;7.63;;;9.10;99.90;;;8.81;100.00;97607.06;5035608;28;20729;-37
2023/05/04 05:24:16;;;;;;;11.73;7.90;;;9.30;99.90;;;8.90;100.00;97598.94;5045899;28;20075;-37
2023/05/04 05:26:42;;;;;;;10.18;7.03;;;9.40;99.90;;;9.06;100.00;97605.53;5043080;28;20485;-38
2023/05/04 05:29:08;;;;;;;12.15;7.88;;;9.50;99.90;;;9.18;100.00;97607.78;5046431;28;20036;-38
2023/05/04 05:31:34;;;;;;;10.20;7.53;;;9.60;99.90;;;9.23;100.00;97605.03;5046166;28;20053;-38
2023/05/04 05:34:00;;;;;;;9.60;7.55;;;9.70;99.90;;;9.38;100.00;97613.41;5050029;28;20024;-38
2023/05/04 05:36:26;;;;;;;11.30;7.32;;;9.80;99.90;;;9.49;100.00;97619.22;5047699;28;20494;-38
2023/05/04 05:38:51;;;;;;;10.88;7.65;;;9.90;99.90;;;9.59;100.00;97615.41;5047342;28;20075;-38
2023/05/04 05:41:17;;;;;;;17.02;9.70;;;10.00;99.90;;;9.66;100.00;97616.09;5048578;28;20029;-38
2023/05/04 05:43:43;;;;;;;14.32;8.05;;;10.10;99.90;;;9.73;100.00;97617.63;5065319;22;20086;-35
2023/05/04 05:46:09;;;;;;;10.18;8.35;;;10.20;99.90;;;9.81;100.00;97612.97;5052311;28;20050;-35
2023/05/04 05:48:34;;;;;;;10.57;8.32;;;10.20;99.90;;;9.90;100.00;97611.84;5048178;28;20078;-35
2023/05/04 05:51:00;;;;;;;13.23;8.80;;;10.30;99.90;;;10.04;100.00;97620.19;5050985;28;20613;-35
2023/05/04 05:53:26;;;;;;;12.10;10.00;;;10.50;99.90;;;10.08;100.00;97611.25;5049789;28;20031;-35
2023/05/04 05:55:51;;;;;;;12.75;9.10;;;10.50;99.90;;;10.20;100.00;97619.72;5048549;28;20028;-35
2023/05/04 05:58:17;;;;;;;11.05;8.32;;;10.60;99.90;;;10.31;100.00;97625.53;5050258;28;20044;-37
2023/05/04 06:00:43;;;;;;;13.60;9.07;;;10.70;99.90;;;10.38;100.00;97627.06;5045551;28;20650;-36
2023/05/04 06:03:08;;;;;;;13.05;9.60;;;10.80;99.90;;;10.48;100.00;97623.22;5048127;28;20632;-37
2023/05/04 06:05:34;;;;;;;14.20;9.57;;;10.90;99.90;;;10.54;100.00;97623.94;5048001;28;20078;-38
2023/05/04 06:08:00;;;;;;;14.15;9.93;;;11.00;99.90;;;10.66;100.00;97623.53;5049669;28;20643;-36
2023/05/04 06:10:26;;;;;;;12.77;8.80;;;11.10;99.90;;;10.78;100.00;97625.72;5047686;28;20091;-36
2023/05/04 06:12:51;;;;;;;11.77;8.35;;;11.20;99.90;;;10.89;100.00;97623.59;5046678;28;20032;-36
2023/05/04 06:15:17;;;;;;;14.02;8.93;;;11.30;99.90;;;11.01;100.00;97622.28;5046868;28;20028;-36
2023/05/04 06:17:43;;;;;;;12.52;8.73;;;11.40;99.90;;;11.14;100.00;97621.84;5044813;28;20033;-37
2023/05/04 06:20:09;;;;;;;10.52;8.27;;;11.50;99.90;;;11.27;100.00;97625.78;5048884;28;20025;-36
2023/05/04 06:22:34;;;;;;;11.75;8.60;;;11.60;99.90;;;11.34;100.00;97618.50;5047107;28;20050;-37
2023/05/04 06:25:00;;;;;;;16.80;9.20;;;11.70;99.90;;;11.44;100.00;97622.53;5048592;28;20025;-36
2023/05/04 06:27:27;;;;;;;11.85;8.85;;;11.80;99.90;;;11.55;100.00;97617.69;5044827;28;20370;-37
2023/05/04 06:29:53;;;;;;;11.77;9.07;;;11.90;99.90;;;11.61;100.00;97612.19;5048910;28;20043;-37
2023/05/04 06:32:19;;;;;;;13.85;9.88;;;12.00;99.90;;;11.73;100.00;97620.56;5042925;28;20029;-36
2023/05/04 06:34:44;;;;;;;13.68;9.55;;;12.10;99.90;;;11.77;100.00;97616.88;5045991;28;20047;-37
2023/05/04 06:37:10;;;;;;;12.52;8.55;;;12.20;99.90;;;11.87;100.00;97622.69;5049836;28;20039;-36
2023/05/04 06:39:36;;;;;;;12.98;8.48;;;12.30;99.90;;;11.91;100.00;97608.47;5041716;28;20397;-37
2023/05/04 06:42:02;;;;;;;13.75;8.75;;;12.30;99.90;;;12.10;100.00;97617.41;5045748;28;20109;-37
2023/05/04 06:44:28;;;;;;;10.65;8.32;;;12.50;99.90;;;12.26;100.00;97619.41;5048383;28;20419;-36
2023/05/04 06:46:53;;;;;;;18.95;9.80;;;12.60;99.90;;;12.40;100.00;97619.75;5048450;28;20024;-37
2023/05/04 06:49:19;;;;;;;12.57;8.35;;;12.80;99.90;;;12.56;100.00;97628.78;5043717;28;20443;-37
2023/05/04 06:51:45;;;;;;;10.77;7.90;;;12.90;99.90;;;12.64;100.00;97619.66;5043685;28;20508;-36
2023/05/04 06:54:11;;;;;;;15.77;8.80;;;13.00;99.90;;;12.85;99.32;97629.34;5044365;28;20075;-37
2023/05/04 06:56:38;;;;;;;13.10;8.38;;;13.10;99.90;;;13.03;98.19;97629.44;5045884;28;20070;-37
2023/05/04 06:59:05;;;;;;;13.60;9.02;;;13.30;99.90;;;13.26;95.79;97628.44;5045664;28;20037;-37
2023/05/04 07:01:30;;;;;;;12.40;8.20;;;13.50;99.90;;;13.53;94.62;97632.56;5046879;28;20453;-37
2023/05/04 07:03:57;;;;;;;15.05;9.30;;;13.70;99.90;;;13.81;88.38;97628.66;5048126;28;20111;-37
2023/05/04 07:06:25;;;;;;;13.30;9.35;;;13.90;99.90;;;14.06;86.23;97632.81;5046770;28;20082;-37
2023/05/04 07:08:51;;;;;;;13.05;8.98;;;14.10;99.90;;;14.28;85.64;97622.91;5047932;28;20508;-37
2023/05/04 07:11:17;;;;;;;10.13;7.80;;;14.30;99.90;;;14.52;82.74;97627.94;5049384;28;20046;-37
2023/05/04 07:13:43;;;;;;;9.93;7.82;;;14.50;99.90;;;14.79;82.47;97620.44;5050336;28;20033;-37
2023/05/04 07:16:08;;;;;;;12.00;8.07;;;14.70;99.90;;;15.01;79.07;97620.19;5050637;28;20028;-37
2023/05/04 07:18:34;;;;;;;10.90;8.15;;;14.90;99.90;;;15.18;77.60;97623.75;5049877;28;20034;-37
2023/05/04 07:21:00;;;;;;;16.55;7.85;;;15.10;99.90;;;15.30;73.15;97624.94;5048091;28;20044;-37
2023/05/04 07:23:26;;;;;;;13.07;8.63;;;15.20;99.90;;;15.26;71.66;97626.88;5045925;28;20400;-38
2023/05/04 07:25:52;;;;;;;14.95;9.00;;;15.30;99.90;;;15.31;72.70;97623.97;5047045;28;20025;-38
2023/05/04 07:28:18;;;;;;;12.80;8.23;;;15.30;99.90;;;15.38;71.99;97620.06;5046491;28;20037;-37
2023/05/04 07:30:43;;;;;;;14.07;7.90;;;15.40;99.90;;;15.51;72.91;97623.78;5048991;28;20036;-38
2023/05/04 07:33:09;;;;;;;14.68;8.25;;;15.50;99.90;;;15.50;71.34;97618.56;5052668;28;20044;-38
2023/05/04 07:35:35;;;;;;;10.63;7.75;;;15.60;99.90;;;15.56;72.29;97618.22;5048038;28;20041;-37
2023/05/04 07:38:02;;;;;;;10.63;7.90;;;15.60;99.90;;;15.57;72.41;97614.63;5050362;28;20448;-37
2023/05/04 07:40:27;;;;;;;11.05;8.27;;;15.60;99.90;;;15.60;69.59;97625.09;5050799;28;20078;-37
2023/05/04 07:42:53;;;;;;;12.57;7.93;;;15.70;99.90;;;15.59;70.10;97621.56;5050254;28;20055;-37
2023/05/04 07:45:19;;;;;;;10.68;8.35;;;15.70;99.90;;;15.54;71.39;97617.44;5044926;28;20033;-37
2023/05/04 07:47:44;;;;;;;11.23;7.55;;;15.70;99.90;;;15.62;69.03;97623.22;5049797;28;20495;-38
2023/05/04 07:50:11;;;;;;;12.63;7.55;;;15.80;99.90;;;15.67;69.53;97621.19;5050502;28;20724;-36
2023/05/04 07:52:37;;;;;;;14.13;7.93;;;15.80;99.90;;;15.65;68.94;97617.75;5049057;28;20099;-37
2023/05/04 07:55:02;;;;;;;14.48;8.25;;;15.90;99.90;;;15.70;68.18;97621.00;5051976;28;20032;-36
2023/05/04 07:57:28;;;;;;;15.88;8.50;;;15.90;99.90;;;15.72;67.13;97624.44;5048784;28;20119;-36
2023/05/04 07:59:55;;;;;;;9.20;7.15;;;15.90;99.90;;;15.80;67.33;97624.91;5050953;28;20677;-38
2023/05/04 08:02:20;;;;;;;10.15;7.38;;;16.00;99.90;;;15.79;68.71;97614.34;5051174;28;20024;-38
2023/05/04 08:04:46;;;;;;;11.57;8.05;;;16.00;99.90;;;15.84;68.04;97601.66;5049824;28;20503;-37
2023/05/04 08:07:14;;;;;;;13.27;8.00;;;16.10;99.90;;;16.02;65.07;97615.75;5047247;28;20031;-36
2023/05/04 08:09:40;;;;;;;12.15;7.00;;;16.20;99.90;;;16.02;64.51;97613.97;5048351;28;20059;-37
2023/05/04 08:12:06;;;;;;;9.18;6.55;;;16.20;99.90;;;16.11;65.54;97615.22;5048442;28;20469;-36
2023/05/04 08:14:32;;;;;;;10.07;7.20;;;16.20;99.90;;;16.16;65.90;97605.19;5051185;28;20293;-38
2023/05/04 08:16:59;;;;;;;11.93;7.30;;;16.40;99.90;;;16.14;63.78;97599.09;5047150;28;20032;-37
2023/05/04 08:19:25;;;;;;;9.20;6.53;;;16.40;99.90;;;16.28;65.93;97602.81;5051309;28;20024;-38
2023/05/04 08:21:50;;;;;;;9.50;6.93;;;16.50;99.90;;;16.26;62.85;97602.00;5049610;28;20078;-37
2023/05/04 08:24:17;;;;;;;12.93;6.50;;;16.50;99.90;;;16.36;64.41;97598.72;5053331;28;20036;-36
2023/05/04 08:26:43;;;;;;;9.82;6.97;;;16.60;99.90;;;16.49;64.20;97601.56;5047470;28;22318;-38
2023/05/04 08:29:09;;;;;;;9.32;6.75;;;16.60;99.90;;;16.55;61.30;97601.22;5051037;28;20377;-37
2023/05/04 08:31:35;;;;;;;11.05;6.85;;;16.70;99.90;;;16.59;59.27;97599.22;5041808;28;20186;-37
2023/05/04 08:34:02;;;;;;;10.15;6.95;;;16.80;99.90;;;16.60;61.92;97604.47;5051004;28;20067;-37
2023/05/04 08:36:29;;;;;;;10.68;6.30;;;16.80;99.90;;;16.65;61.55;97598.00;5046508;28;20075;-37
2023/05/04 08:38:55;;;;;;;12.32;6.85;;;16.80;99.90;;;16.65;60.17;97596.19;5050068;28;20037;-37
2023/05/04 08:41:22;;;;;;;7.55;5.85;;;16.80;99.90;;;16.77;62.61;97591.97;5046634;28;20037;-37
2023/05/04 08:43:49;;;;;;;8.27;6.03;;;16.90;99.90;;;16.77;58.76;97587.50;5050198;28;20028;-37
2023/05/04 08:46:15;;;;;;;5.28;4.78;;;17.00;99.90;;;16.96;60.53;97592.63;5047501;28;20037;-37
2023/05/04 08:48:43;;;;;;;8.02;5.75;;;17.10;99.90;;;17.07;59.29;97591.13;5044334;28;20131;-37
2023/05/04 08:51:09;;;;;;;7.07;4.70;;;17.20;99.90;;;17.21;56.64;97591.16;5051225;28;20041;-37
2023/05/04 08:53:39;;;;;;;7.20;5.20;;;17.40;99.90;;;17.33;55.08;97587.72;5049130;28;20087;-37
2023/05/04 08:56:08;;;;;;;5.85;4.10;;;17.40;99.90;;;17.46;51.69;97578.97;5070318;28;20493;-37
2023/05/04 08:58:36;;;;;;;5.85;3.58;;;17.60;99.90;;;17.60;53.21;97581.63;5051387;28;20032;-37
2023/05/04 09:01:05;;;;;;;7.90;4.70;;;17.70;99.90;;;17.76;53.17;97581.53;5049404;28;20098;-37
2023/05/04 09:03:32;;;;;;;8.05;4.82;;;17.90;99.90;;;17.77;49.88;97577.06;5047421;28;20530;-37
2023/05/04 09:05:59;;;;;;;6.68;4.30;;;17.90;99.70;;;17.88;52.42;97575.44;5048839;28;20045;-37
2023/05/04 09:08:26;;;;;;;7.47;4.63;;;18.00;99.90;;;17.90;50.80;97581.53;5046509;28;20029;-38
2023/05/04 09:10:51;;;;;;;6.75;3.90;;;18.10;99.80;;;18.05;49.88;97566.38;5049417;28;20032;-37
2023/05/04 09:13:17;;;;;;;7.43;3.45;;;18.10;98.70;;;18.10;46.72;97563.41;5050350;28;20037;-37
2023/05/04 09:15:54;;;;;;;3.13;2.45;;;18.20;97.00;;;18.12;49.05;97575.69;5048300;28;20119;-37
2023/05/04 09:18:20;;;;;;;5.60;3.13;;;18.30;98.00;;;18.21;49.53;97568.03;5047523;28;20590;-37
2023/05/04 09:20:46;;;;;;;6.05;3.40;;;18.30;98.20;;;18.24;48.74;97563.34;5047012;28;20523;-37
2023/05/04 09:23:13;;;;;;;4.47;3.33;;;18.40;98.20;;;18.40;46.43;97563.19;5050991;28;20024;-37
2023/05/04 09:25:51;;;;;;;5.57;3.40;;;18.50;96.30;;;18.42;46.55;97563.94;5049121;28;20073;-37
2023/05/04 09:28:19;;;;;;;5.03;3.28;;;18.50;96.90;;;18.41;45.38;97556.91;5050112;28;20034;-37
2023/05/04 09:30:47;;;;;;;3.80;3.00;;;18.60;95.20;;;18.40;46.05;97568.53;5048897;28;20464;-37
2023/05/04 09:33:15;;;;;;;4.57;3.00;;;18.60;95.10;;;18.43;45.67;97559.47;5050246;28;20032;-37
2023/05/04 09:35:43;;;;;;;5.90;3.83;;;18.60;94.90;;;18.42;45.73;97558.63;5045462;28;20748;-38
2023/05/04 09:38:09;;;;;;;4.80;3.55;;;18.60;95.20;;;18.51;45.19;97558.00;5068929;28;20413;-37
2023/05/04 09:40:39;;;;;;;4.90;3.78;;;18.70;94.70;;;18.55;46.26;97560.47;5047164;28;20031;-37
2023/05/04 09:43:09;;;;;;;5.00;3.25;;;18.70;94.60;;;18.57;46.22;97542.53;5050066;28;20024;-37
2023/05/04 09:45:43;;;;;;;5.38;3.42;;;18.70;94.70;;;18.63;46.65;97547.47;5044932;28;20120;-38
2023/05/04 09:48:24;;;;;;;4.03;3.40;;;18.80;95.00;;;18.69;46.20;97547.03;5051112;28;20393;-37
2023/05/04 09:50:58;;;;;;;4.70;3.15;;;18.80;94.90;;;18.76;45.83;97547.50;5045495;28;20040;-37
2023/05/04 09:53:26;;;;;;;6.05;3.75;;;18.90;94.20;;;18.86;45.90;97543.25;5049508;28;20648;-37
2023/05/04 09:56:13;;;;;;;4.30;3.40;;;19.00;94.10;;;18.91;45.43;97543.78;5047134;28;20045;-37
2023/05/04 09:58:40;;;;;;;5.38;3.30;;;19.10;94.30;;;18.95;44.69;97545.31;5045488;28;20455;-38
2023/05/04 10:01:05;;;;;;;5.75;3.30;;;19.10;93.20;;;18.95;45.67;97539.09;5047407;28;20544;-36
2023/05/04 10:03:32;;;;;;;6.07;3.95;;;19.10;93.80;;;18.96;44.56;97543.50;5051872;28;20029;-38
2023/05/04 10:06:07;;;;;;;4.20;3.67;;;19.20;93.00;;;19.03;45.19;97547.44;5047514;28;20040;-37
2023/05/04 10:08:33;;;;;;;5.78;3.60;;;19.20;93.20;;;19.04;43.59;97533.09;5047321;28;20040;-37
2023/05/04 10:10:59;;;;;;;6.78;3.58;;;19.20;92.30;;;19.13;44.12;97532.50;5051280;28;20060;-37
2023/05/04 10:13:25;;;;;;;3.47;2.95;;;19.30;92.00;;;19.18;46.25;97524.97;5047221;28;20020;-37
2023/05/04 10:16:26;;;;;;;7.45;3.58;;;19.40;93.70;;;19.29;43.45;97532.28;5046247;28;20056;-37
2023/05/04 10:19:15;;;;;;;3.60;2.67;;;19.50;92.00;;;19.34;42.79;97532.78;5050101;28;20025;-37